createdAt,value
2023-12-17T00:02:01.709Z,0.50
2023-12-17T00:04:30.157Z,0.50
2023-12-17T00:06:57.097Z,0.50
2023-12-17T00:09:24.051Z,0.50
2023-12-17T00:11:51.051Z,0.70
2023-12-17T00:14:18.008Z,0.60
2023-12-17T00:16:44.931Z,0.60
2023-12-17T00:19:11.898Z,0.70
2023-12-17T00:21:40.201Z,0.70
2023-12-17T00:24:07.406Z,0.70
2023-12-17T00:26:34.340Z,0.70
2023-12-17T00:29:01.256Z,0.70
2023-12-17T00:31:28.143Z,0.70
2023-12-17T00:33:55.248Z,0.70
2023-12-17T00:36:22.329Z,0.60
2023-12-17T00:38:50.668Z,0.60
2023-12-17T00:41:17.572Z,0.70
2023-12-17T00:43:44.582Z,0.70
2023-12-17T00:46:11.510Z,0.40
2023-12-17T00:48:38.622Z,0.40
2023-12-17T00:51:10.427Z,0.40
2023-12-17T00:53:37.406Z,0.20
2023-12-17T00:56:06.589Z,0.30
2023-12-17T00:58:33.594Z,0.30
2023-12-17T01:01:00.639Z,0.30
2023-12-17T01:03:27.606Z,0.30
2023-12-17T01:05:54.650Z,0.40
2023-12-17T01:08:21.716Z,0.50
2023-12-17T01:10:48.687Z,0.40
2023-12-17T01:13:17.008Z,0.50
2023-12-17T01:15:44.113Z,0.60
2023-12-17T01:18:11.152Z,0.70
2023-12-17T01:20:38.194Z,0.70
2023-12-17T01:23:05.087Z,0.70
2023-12-17T01:25:31.990Z,0.70
2023-12-17T01:27:58.880Z,0.70
2023-12-17T01:30:27.360Z,0.50
2023-12-17T01:32:54.379Z,0.60
2023-12-17T01:35:21.321Z,0.50
2023-12-17T01:37:48.224Z,0.50
2023-12-17T01:40:15.214Z,0.50
2023-12-17T01:42:42.109Z,0.50
2023-12-17T01:45:10.258Z,0.40
2023-12-17T01:47:38.890Z,0.40
2023-12-17T01:50:07.742Z,0.40
2023-12-17T01:52:35.017Z,0.40
2023-12-17T01:55:02.355Z,0.40
2023-12-17T01:57:29.349Z,0.40
2023-12-17T01:59:56.571Z,0.40
2023-12-17T02:02:23.511Z,0.40
2023-12-17T02:04:51.850Z,0.40
2023-12-17T02:07:21.534Z,0.40
2023-12-17T02:09:48.491Z,0.50
2023-12-17T02:12:24.662Z,0.40
2023-12-17T02:14:51.607Z,0.40
2023-12-17T02:17:20.661Z,0.30
2023-12-17T02:19:47.590Z,0.30
2023-12-17T02:22:15.908Z,0.30
2023-12-17T02:24:44.265Z,0.30
2023-12-17T02:27:11.230Z,0.30
2023-12-17T02:29:38.365Z,0.30
2023-12-17T02:32:06.168Z,0.30
2023-12-17T02:34:33.209Z,0.20
2023-12-17T02:37:00.150Z,0.10
2023-12-17T02:39:27.152Z,0.00
2023-12-17T02:41:55.478Z,0.00
2023-12-17T02:44:22.388Z,0.00
2023-12-17T02:46:49.482Z,0.10
2023-12-17T02:49:16.499Z,0.10
2023-12-17T02:51:43.426Z,0.10
2023-12-17T02:54:10.485Z,0.20
2023-12-17T02:56:39.322Z,0.10
2023-12-17T02:59:08.702Z,0.20
2023-12-17T03:01:35.808Z,0.10
2023-12-17T03:04:04.161Z,0.10
2023-12-17T03:06:31.251Z,0.20
2023-12-17T03:08:58.461Z,0.20
2023-12-17T03:11:25.891Z,0.20
2023-12-17T03:13:52.854Z,0.20
2023-12-17T03:16:21.200Z,0.10
2023-12-17T03:18:48.417Z,0.00
2023-12-17T03:21:15.538Z,0.00
2023-12-17T03:23:42.514Z,-0.10
2023-12-17T03:26:09.492Z,-0.20
2023-12-17T03:28:36.383Z,-0.10
2023-12-17T03:31:03.401Z,0.00
2023-12-17T03:33:31.882Z,0.00
2023-12-17T03:35:59.029Z,0.00
2023-12-17T03:38:26.115Z,0.00
2023-12-17T03:40:53.016Z,0.00
2023-12-17T03:43:19.922Z,0.00
2023-12-17T03:45:46.850Z,0.00
2023-12-17T03:48:14.073Z,0.00
2023-12-17T03:50:42.495Z,0.00
2023-12-17T03:53:09.535Z,0.00
2023-12-17T03:55:36.439Z,-0.10
2023-12-17T03:58:03.346Z,-0.20
2023-12-17T04:00:30.377Z,-0.10
2023-12-17T04:02:57.553Z,-0.10
2023-12-17T04:05:25.382Z,-0.10
2023-12-17T04:07:53.714Z,-0.10
2023-12-17T04:10:20.685Z,-0.10
2023-12-17T04:12:47.582Z,-0.10
2023-12-17T04:15:14.574Z,-0.10
2023-12-17T04:17:41.886Z,-0.10
2023-12-17T04:20:10.282Z,0.00
2023-12-17T04:22:37.216Z,0.00
2023-12-17T04:25:06.697Z,0.00
2023-12-17T04:27:33.591Z,0.00
2023-12-17T04:30:00.666Z,0.00
2023-12-17T04:32:27.668Z,0.00
2023-12-17T04:34:54.670Z,0.10
2023-12-17T04:37:21.612Z,0.20
2023-12-17T04:39:48.537Z,0.10
2023-12-17T04:42:16.932Z,0.00
2023-12-17T04:44:43.970Z,0.00
2023-12-17T04:47:11.573Z,-0.10
2023-12-17T04:49:39.380Z,-0.20
2023-12-17T04:52:07.157Z,-0.30
2023-12-17T04:54:34.563Z,-0.20
2023-12-17T04:57:01.528Z,-0.20
2023-12-17T04:59:29.882Z,-0.10
2023-12-17T05:01:56.759Z,0.00
2023-12-17T05:04:24.071Z,-0.10
2023-12-17T05:06:51.262Z,-0.20
2023-12-17T05:09:18.258Z,-0.20
2023-12-17T05:11:45.224Z,-0.20
2023-12-17T05:14:12.157Z,-0.20
2023-12-17T05:16:42.166Z,-0.20
2023-12-17T05:19:09.229Z,-0.10
2023-12-17T05:21:36.235Z,-0.10
2023-12-17T05:24:03.303Z,-0.10
2023-12-17T05:26:30.306Z,-0.10
2023-12-17T05:28:57.218Z,-0.10
2023-12-17T05:31:24.300Z,-0.10
2023-12-17T05:33:52.753Z,-0.20
2023-12-17T05:36:19.810Z,-0.10
2023-12-17T05:38:46.728Z,-0.10
2023-12-17T05:41:13.740Z,-0.30
2023-12-17T05:43:40.643Z,-0.40
2023-12-17T05:46:07.701Z,-0.50
2023-12-17T05:48:34.843Z,-0.60
2023-12-17T05:51:03.376Z,-0.50
2023-12-17T05:53:34.316Z,-0.40
2023-12-17T05:56:08.749Z,-0.40
2023-12-17T05:58:35.685Z,-0.30
2023-12-17T06:01:02.669Z,-0.40
2023-12-17T06:03:29.714Z,-0.40
2023-12-17T06:05:56.742Z,-0.50
2023-12-17T06:08:25.014Z,-0.50
2023-12-17T06:10:51.910Z,-0.50
2023-12-17T06:13:18.909Z,-0.40
2023-12-17T06:15:45.875Z,-0.40
2023-12-17T06:18:12.931Z,-0.40
2023-12-17T06:20:39.939Z,-0.40
2023-12-17T06:23:06.905Z,-0.30
2023-12-17T06:25:35.159Z,-0.30
2023-12-17T06:28:02.071Z,-0.40
2023-12-17T06:30:29.140Z,-0.40
2023-12-17T06:33:03.616Z,-0.30
2023-12-17T06:35:30.657Z,-0.30
2023-12-17T06:37:57.743Z,-0.30
2023-12-17T06:40:25.567Z,-0.30
2023-12-17T06:42:53.957Z,-0.30
2023-12-17T06:45:25.367Z,-0.30
2023-12-17T06:48:02.679Z,-0.30
2023-12-17T06:50:29.692Z,-0.30
2023-12-17T06:52:56.616Z,-0.30
2023-12-17T06:55:23.533Z,-0.30
2023-12-17T06:57:50.504Z,-0.20
2023-12-17T07:00:23.259Z,-0.30
2023-12-17T07:03:04.038Z,-0.20
2023-12-17T07:05:36.404Z,-0.20
2023-12-17T07:08:05.137Z,-0.30
2023-12-17T07:10:32.064Z,-0.30
2023-12-17T07:13:04.581Z,-0.30
2023-12-17T07:15:34.837Z,-0.20
2023-12-17T07:18:01.896Z,-0.20
2023-12-17T07:20:28.911Z,-0.20
2023-12-17T07:22:55.824Z,-0.20
2023-12-17T07:25:22.843Z,-0.20
2023-12-17T07:27:52.327Z,-0.20
2023-12-17T07:30:20.383Z,-0.20
2023-12-17T07:32:48.959Z,-0.10
2023-12-17T07:35:16.331Z,-0.10
2023-12-17T07:37:46.720Z,-0.10
2023-12-17T07:40:13.669Z,-0.10
2023-12-17T07:42:41.321Z,-0.10
2023-12-17T07:45:09.930Z,-0.10
2023-12-17T07:47:39.819Z,0.00
2023-12-17T07:50:19.633Z,-0.20
2023-12-17T07:52:46.682Z,-0.20
2023-12-17T07:55:13.792Z,-0.20
2023-12-17T07:57:40.917Z,-0.20
2023-12-17T08:00:09.408Z,-0.20
2023-12-17T08:02:39.361Z,-0.10
2023-12-17T08:05:07.172Z,-0.10
2023-12-17T08:07:35.951Z,0.00
2023-12-17T08:10:03.020Z,-0.10
2023-12-17T08:12:29.981Z,-0.10
2023-12-17T08:14:57.072Z,0.00
2023-12-17T08:17:24.062Z,0.10
2023-12-17T08:19:51.056Z,0.10
2023-12-17T08:22:18.369Z,0.20
2023-12-17T08:24:47.084Z,0.20
2023-12-17T08:27:14.196Z,0.20
2023-12-17T08:29:41.242Z,0.30
2023-12-17T08:32:09.768Z,0.30
2023-12-17T08:34:37.471Z,0.40
2023-12-17T08:37:04.649Z,0.50
2023-12-17T08:39:31.797Z,0.60
2023-12-17T08:42:00.323Z,0.70
2023-12-17T08:44:30.025Z,0.70
2023-12-17T08:46:56.962Z,0.70
2023-12-17T08:49:24.045Z,0.70
2023-12-17T08:51:51.057Z,0.70
2023-12-17T08:54:18.145Z,1.30
2023-12-17T08:56:45.232Z,1.10
2023-12-17T08:59:13.493Z,1.10
2023-12-17T09:01:40.579Z,1.10
2023-12-17T09:04:07.635Z,1.10
2023-12-17T09:06:42.841Z,1.10
2023-12-17T09:09:09.998Z,1.20
2023-12-17T09:11:36.977Z,1.20
2023-12-17T09:14:03.929Z,1.20
2023-12-17T09:16:32.305Z,1.20
2023-12-17T09:18:59.372Z,1.10
2023-12-17T09:21:26.601Z,1.20
2023-12-17T09:23:53.733Z,1.20
2023-12-17T09:26:20.685Z,1.30
2023-12-17T09:28:47.629Z,1.40
2023-12-17T09:31:14.870Z,1.50
2023-12-17T09:33:43.380Z,1.50
2023-12-17T09:36:10.767Z,1.60
2023-12-17T09:38:37.763Z,1.70
2023-12-17T09:41:05.849Z,1.80
2023-12-17T09:43:33.034Z,1.80
2023-12-17T09:46:00.007Z,1.80
2023-12-17T09:48:27.204Z,1.90
2023-12-17T09:50:55.897Z,2.00
2023-12-17T09:53:22.914Z,2.00
2023-12-17T09:55:49.855Z,2.10
2023-12-17T09:58:17.697Z,2.10
2023-12-17T10:00:45.410Z,2.20
2023-12-17T10:03:12.505Z,2.30
2023-12-17T10:05:39.598Z,2.30
2023-12-17T10:08:07.932Z,2.30
2023-12-17T10:10:34.873Z,2.50
2023-12-17T10:13:01.868Z,2.60
2023-12-17T10:15:34.903Z,2.70
2023-12-17T10:18:02.724Z,2.80
2023-12-17T10:20:32.419Z,2.80
2023-12-17T10:23:05.180Z,2.80
2023-12-17T10:25:38.120Z,3.00
2023-12-17T10:28:05.426Z,3.00
2023-12-17T10:30:33.754Z,3.10
2023-12-17T10:33:02.707Z,3.10
2023-12-17T10:35:31.205Z,3.10
2023-12-17T10:38:09.095Z,3.20
2023-12-17T10:40:38.679Z,3.30
2023-12-17T10:43:06.534Z,3.30
2023-12-17T10:45:35.397Z,3.60
2023-12-17T10:48:03.750Z,3.80
2023-12-17T10:50:30.919Z,3.90
2023-12-17T10:52:57.953Z,4.10
2023-12-17T10:55:24.960Z,4.20
2023-12-17T10:58:00.763Z,4.40
2023-12-17T11:00:31.317Z,4.70
2023-12-17T11:03:02.423Z,4.80
2023-12-17T11:05:29.643Z,4.90
2023-12-17T11:07:56.715Z,5.10
2023-12-17T11:10:23.609Z,5.30
2023-12-17T11:12:50.665Z,5.50
2023-12-17T11:15:23.904Z,5.60
2023-12-17T11:17:53.763Z,5.60
2023-12-17T11:20:22.104Z,5.80
2023-12-17T11:22:51.136Z,6.00
2023-12-17T11:25:19.673Z,6.10
2023-12-17T11:27:49.114Z,6.20
2023-12-17T11:30:31.688Z,6.20
2023-12-17T11:32:59.981Z,6.40
2023-12-17T11:35:28.790Z,6.30
2023-12-17T11:37:56.217Z,6.40
2023-12-17T11:40:23.297Z,6.40
2023-12-17T11:42:58.208Z,6.40
2023-12-17T11:45:34.764Z,6.30
2023-12-17T11:48:09.238Z,6.10
2023-12-17T11:50:46.876Z,6.00
2023-12-17T11:53:15.117Z,5.90
2023-12-17T11:55:46.431Z,5.90
2023-12-17T11:58:13.724Z,5.70
2023-12-17T12:00:44.005Z,5.60
2023-12-17T12:03:11.152Z,5.70
2023-12-17T12:05:38.439Z,5.70
2023-12-17T12:08:05.471Z,5.60
2023-12-17T12:10:32.488Z,5.70
2023-12-17T12:13:04.190Z,5.90
2023-12-17T12:15:31.350Z,5.90
2023-12-17T12:17:59.795Z,5.80
2023-12-17T12:20:36.672Z,5.80
2023-12-17T12:23:09.621Z,5.80
2023-12-17T12:25:37.103Z,5.90
2023-12-17T12:28:04.208Z,6.00
2023-12-17T12:30:31.496Z,6.10
2023-12-17T12:33:10.847Z,6.30
2023-12-17T12:35:37.997Z,6.40
2023-12-17T12:38:18.223Z,6.40
2023-12-17T12:40:45.280Z,6.40
2023-12-17T12:43:12.397Z,6.60
2023-12-17T12:45:39.477Z,6.80
2023-12-17T12:48:18.262Z,6.80
2023-12-17T12:50:45.713Z,7.00
2023-12-17T12:53:16.472Z,7.10
2023-12-17T12:55:50.139Z,7.10
2023-12-17T12:58:18.157Z,7.20
2023-12-17T13:00:47.424Z,7.30
2023-12-17T13:03:14.701Z,7.30
2023-12-17T13:05:43.754Z,7.30
2023-12-17T13:08:10.843Z,7.20
2023-12-17T13:10:37.878Z,7.10
2023-12-17T13:13:04.864Z,7.00
2023-12-17T13:15:34.397Z,6.90
2023-12-17T13:18:02.579Z,7.00
2023-12-17T13:20:29.855Z,7.20
2023-12-17T13:22:58.456Z,7.30
2023-12-17T13:25:25.387Z,7.20
2023-12-17T13:27:52.453Z,7.00
2023-12-17T13:30:20.186Z,7.20
2023-12-17T13:32:47.853Z,7.10
2023-12-17T13:35:15.391Z,7.30
2023-12-17T13:37:44.701Z,7.40
2023-12-17T13:40:14.148Z,7.40
2023-12-17T13:42:41.455Z,7.50
2023-12-17T13:45:09.325Z,7.40
2023-12-17T13:47:36.660Z,7.30
2023-12-17T13:50:03.960Z,7.30
2023-12-17T13:52:31.291Z,7.30
2023-12-17T13:55:00.791Z,7.30
2023-12-17T13:57:29.214Z,7.40
2023-12-17T13:59:57.076Z,7.30
2023-12-17T14:02:24.076Z,7.50
2023-12-17T14:04:51.108Z,7.60
2023-12-17T14:07:20.357Z,7.10
2023-12-17T14:09:47.364Z,6.80
2023-12-17T14:12:14.349Z,6.60
2023-12-17T14:14:42.668Z,6.30
2023-12-17T14:17:09.643Z,6.10
2023-12-17T14:19:36.662Z,6.00
2023-12-17T14:22:04.071Z,5.90
2023-12-17T14:24:31.048Z,5.80
2023-12-17T14:26:58.163Z,5.70
2023-12-17T14:29:25.337Z,5.60
2023-12-17T14:31:53.624Z,5.60
2023-12-17T14:34:20.634Z,5.50
2023-12-17T14:36:47.704Z,5.40
2023-12-17T14:39:14.915Z,5.40
2023-12-17T14:41:42.033Z,5.40
2023-12-17T14:44:09.085Z,5.30
2023-12-17T14:46:35.996Z,5.30
2023-12-17T14:49:04.633Z,5.20
2023-12-17T14:51:32.795Z,5.20
2023-12-17T14:53:59.840Z,5.10
2023-12-17T14:56:26.939Z,5.00
2023-12-17T14:58:53.993Z,5.00
2023-12-17T15:01:25.368Z,4.90
2023-12-17T15:03:58.648Z,4.90
2023-12-17T15:06:27.013Z,4.80
2023-12-17T15:08:54.037Z,4.80
2023-12-17T15:11:21.005Z,4.60
2023-12-17T15:13:47.942Z,4.60
2023-12-17T15:16:14.962Z,4.60
2023-12-17T15:18:42.111Z,4.60
2023-12-17T15:21:09.251Z,4.50
2023-12-17T15:23:38.596Z,4.50
2023-12-17T15:26:06.074Z,4.50
2023-12-17T15:28:33.544Z,4.40
2023-12-17T15:31:00.691Z,4.30
2023-12-17T15:33:27.930Z,4.40
2023-12-17T15:35:54.983Z,4.30
2023-12-17T15:38:21.896Z,4.30
2023-12-17T15:40:50.230Z,4.30
2023-12-17T15:43:17.127Z,4.20
2023-12-17T15:45:44.794Z,4.20
2023-12-17T15:48:11.912Z,4.10
2023-12-17T15:50:38.959Z,4.10
2023-12-17T15:53:05.873Z,4.10
2023-12-17T15:55:32.807Z,4.00
2023-12-17T15:58:01.102Z,3.90
2023-12-17T16:00:28.213Z,3.90
2023-12-17T16:02:55.255Z,3.90
2023-12-17T16:05:22.401Z,3.80
2023-12-17T16:07:50.330Z,3.80
2023-12-17T16:10:17.633Z,3.70
2023-12-17T16:12:44.833Z,3.80
2023-12-17T16:15:13.422Z,3.90
2023-12-17T16:17:40.442Z,3.90
2023-12-17T16:20:08.340Z,3.80
2023-12-17T16:22:35.257Z,3.80
2023-12-17T16:25:04.973Z,3.70
2023-12-17T16:27:32.086Z,3.60
2023-12-17T16:29:59.056Z,3.60
2023-12-17T16:32:28.361Z,3.50
2023-12-17T16:34:56.350Z,3.30
2023-12-17T16:37:23.270Z,3.30
2023-12-17T16:39:50.283Z,3.30
2023-12-17T16:42:17.221Z,3.20
2023-12-17T16:44:44.150Z,3.30
2023-12-17T16:47:11.059Z,3.20
2023-12-17T16:49:39.413Z,3.20
2023-12-17T16:52:07.017Z,3.20
2023-12-17T16:54:34.019Z,3.20
2023-12-17T16:57:00.966Z,3.20
2023-12-17T16:59:27.909Z,3.10
2023-12-17T17:01:55.438Z,3.10
2023-12-17T17:04:22.670Z,3.00
2023-12-17T17:06:51.262Z,3.00
2023-12-17T17:09:18.933Z,3.10
2023-12-17T17:11:46.411Z,3.10
2023-12-17T17:14:13.401Z,3.00
2023-12-17T17:16:40.323Z,3.00
2023-12-17T17:19:07.329Z,2.90
2023-12-17T17:21:34.721Z,3.00
2023-12-17T17:24:03.308Z,2.80
2023-12-17T17:26:30.225Z,2.80
2023-12-17T17:28:57.375Z,2.80
2023-12-17T17:31:24.362Z,2.70
2023-12-17T17:33:52.943Z,2.70
2023-12-17T17:36:21.735Z,2.70
2023-12-17T17:38:48.644Z,2.70
2023-12-17T17:41:17.163Z,2.70
2023-12-17T17:43:44.507Z,2.70
2023-12-17T17:46:11.544Z,2.70
2023-12-17T17:48:38.868Z,2.70
2023-12-17T17:51:06.629Z,2.70
2023-12-17T17:53:34.068Z,2.70
2023-12-17T17:56:01.465Z,2.70
2023-12-17T17:58:29.750Z,2.70
2023-12-17T18:01:04.273Z,2.60
2023-12-17T18:03:31.322Z,2.70
2023-12-17T18:05:58.384Z,2.60
2023-12-17T18:08:25.420Z,2.60
2023-12-17T18:10:52.415Z,2.60
2023-12-17T18:13:21.819Z,2.60
2023-12-17T18:15:51.381Z,2.60
2023-12-17T18:18:18.678Z,2.60
2023-12-17T18:20:45.900Z,2.60
2023-12-17T18:23:22.152Z,2.60
2023-12-17T18:25:49.232Z,2.50
2023-12-17T18:28:16.320Z,2.40
2023-12-17T18:30:43.285Z,2.40
2023-12-17T18:33:11.816Z,2.30
2023-12-17T18:35:38.908Z,2.40
2023-12-17T18:38:05.867Z,2.40
2023-12-17T18:40:32.759Z,2.40
2023-12-17T18:42:59.665Z,2.40
2023-12-17T18:45:26.660Z,2.30
2023-12-17T18:47:53.766Z,2.40
2023-12-17T18:50:22.115Z,2.40
2023-12-17T18:52:49.025Z,2.40
2023-12-17T18:55:15.958Z,2.30
2023-12-17T18:57:43.250Z,2.30
2023-12-17T19:00:10.878Z,2.40
2023-12-17T19:02:38.215Z,2.30
2023-12-17T19:05:06.022Z,2.30
2023-12-17T19:07:34.383Z,2.30
2023-12-17T19:10:01.332Z,2.30
2023-12-17T19:12:28.298Z,2.20
2023-12-17T19:14:55.305Z,2.20
2023-12-17T19:17:22.272Z,2.20
2023-12-17T19:19:49.380Z,2.10
2023-12-17T19:22:16.406Z,2.00
2023-12-17T19:24:45.214Z,2.00
2023-12-17T19:27:12.204Z,1.90
2023-12-17T19:29:39.318Z,1.90
2023-12-17T19:32:06.429Z,1.90
2023-12-17T19:34:35.589Z,1.90
2023-12-17T19:37:02.657Z,1.80
2023-12-17T19:39:29.655Z,1.80
2023-12-17T19:41:58.198Z,2.00
2023-12-17T19:44:25.179Z,2.00
2023-12-17T19:46:52.940Z,2.10
2023-12-17T19:49:19.996Z,2.00
2023-12-17T19:51:46.950Z,2.00
2023-12-17T19:54:14.529Z,2.00
2023-12-17T19:56:41.451Z,2.00
2023-12-17T19:59:09.853Z,2.00
2023-12-17T20:01:37.043Z,2.00
2023-12-17T20:04:04.163Z,2.00
2023-12-17T20:06:31.127Z,2.00
2023-12-17T20:08:58.149Z,2.10
2023-12-17T20:11:25.118Z,2.10
2023-12-17T20:13:52.202Z,2.10
2023-12-17T20:16:20.499Z,1.90
2023-12-17T20:18:47.547Z,1.80
2023-12-17T20:21:14.622Z,1.80
2023-12-17T20:23:42.901Z,1.70
2023-12-17T20:26:11.815Z,1.70
2023-12-17T20:28:39.189Z,1.70
2023-12-17T20:31:06.242Z,1.60
2023-12-17T20:33:34.880Z,1.50
2023-12-17T20:36:02.060Z,1.50
2023-12-17T20:38:29.009Z,1.50
2023-12-17T20:40:56.060Z,1.40
2023-12-17T20:43:23.013Z,1.40
2023-12-17T20:45:49.966Z,1.40
2023-12-17T20:48:17.014Z,1.50
2023-12-17T20:50:45.540Z,1.50
2023-12-17T20:53:12.459Z,1.60
2023-12-17T20:55:39.392Z,1.60
2023-12-17T20:58:06.296Z,1.60
2023-12-17T21:00:33.348Z,1.60
2023-12-17T21:03:00.468Z,1.60
2023-12-17T21:05:27.633Z,1.60
2023-12-17T21:07:58.828Z,1.60
2023-12-17T21:10:25.772Z,1.50
2023-12-17T21:12:52.804Z,1.60
2023-12-17T21:15:19.819Z,1.60
2023-12-17T21:17:46.907Z,1.60
2023-12-17T21:20:14.170Z,1.50
2023-12-17T21:22:41.289Z,1.40
2023-12-17T21:25:10.378Z,1.40
2023-12-17T21:27:37.401Z,1.40
2023-12-17T21:30:10.022Z,1.40
2023-12-17T21:32:37.136Z,1.40
2023-12-17T21:35:04.728Z,1.40
2023-12-17T21:37:31.657Z,1.40
2023-12-17T21:39:58.768Z,1.40
2023-12-17T21:42:27.094Z,1.50
2023-12-17T21:44:54.117Z,1.40
2023-12-17T21:47:21.097Z,1.40
2023-12-17T21:49:48.093Z,1.40
2023-12-17T21:52:24.654Z,1.40
2023-12-17T21:54:59.622Z,1.40
2023-12-17T21:57:40.258Z,1.40
2023-12-17T22:00:14.102Z,1.30
2023-12-17T22:02:41.105Z,1.40
2023-12-17T22:05:08.269Z,1.40
2023-12-17T22:07:41.150Z,1.40
2023-12-17T22:10:09.473Z,1.40
2023-12-17T22:12:37.972Z,1.40
2023-12-17T22:15:05.581Z,1.40
2023-12-17T22:17:32.619Z,1.30
2023-12-17T22:19:59.557Z,1.40
2023-12-17T22:22:26.629Z,1.20
2023-12-17T22:24:54.421Z,1.30
2023-12-17T22:27:21.542Z,1.30
2023-12-17T22:29:49.952Z,1.30
2023-12-17T22:32:16.977Z,1.30
2023-12-17T22:34:44.015Z,1.30
2023-12-17T22:37:10.963Z,1.30
2023-12-17T22:39:37.870Z,1.30
2023-12-17T22:42:05.819Z,1.30
2023-12-17T22:44:32.804Z,1.30
2023-12-17T22:47:01.055Z,1.20
2023-12-17T22:49:28.094Z,1.30
2023-12-17T22:51:55.066Z,1.20
2023-12-17T22:54:22.031Z,1.20
2023-12-17T22:56:48.997Z,1.20
2023-12-17T22:59:16.168Z,1.20
2023-12-17T23:01:43.111Z,1.00
2023-12-17T23:04:11.720Z,1.00
2023-12-17T23:06:38.879Z,0.90
2023-12-17T23:09:05.859Z,1.00
2023-12-17T23:11:37.934Z,1.00
2023-12-17T23:14:04.888Z,1.10
2023-12-17T23:16:31.831Z,1.00
2023-12-17T23:18:58.882Z,1.00
2023-12-17T23:21:27.299Z,1.10
2023-12-17T23:23:54.278Z,1.10
2023-12-17T23:26:22.346Z,1.10
2023-12-17T23:28:49.758Z,1.00
2023-12-17T23:31:16.779Z,1.10
2023-12-17T23:33:43.818Z,1.10
2023-12-17T23:36:10.835Z,1.10
2023-12-17T23:38:39.135Z,1.10
2023-12-17T23:41:06.124Z,1.10
2023-12-17T23:43:33.031Z,1.10
2023-12-17T23:46:00.067Z,1.10
2023-12-17T23:48:27.230Z,1.00
2023-12-17T23:50:54.306Z,1.00
2023-12-17T23:53:21.473Z,0.90
2023-12-17T23:55:49.859Z,1.00
2023-12-17T23:58:16.862Z,0.90
